Latest Weather Observations for Robe Airport

IDS60801

Issued at 10:31 am CDT Thursday 23 February 2017 (issued every 30 minutes, with the page automatically refreshed every 10 minutes)

About weather observations | Map of weather stations | Latest weather observations for SA | Other Formats
Station Details ID: 026105 Name: ROBE AIRFIELD Lat: -37.18 Lon: 139.81 Height: 3.0 m
Data from the previous 72 hours. | See also: Recent months at Robe Airport
Date/Time
CDT
Temp
°C
App
Temp
°C
Dew
Point
°C
Rel
Hum
%
Delta-T
°C
Wind Press
QNH
hPa
Press
MSL
hPa
Rain since
9am
mm
Dir  Spd
km/h
Gust
km/h
Spd
kts
Gust
kts
23/10:30am 16.9 14.2 13.0 78 2.2 SW 19 26 10 14 1020.2 1020.2 0.0
23/10:00am 17.0 14.7 12.9 77 2.3 SW 17 26 9 14 1019.5 1019.5 0.0
23/09:30am 17.5 14.5 12.6 73 2.7 SW 20 30 11 16 1019.0 1019.0 0.0
23/09:00am 17.4 15.2 13.3 77 2.3 SW 17 30 9 16 1018.6 1018.6 0.0
23/08:30am 16.4 13.8 13.7 84 1.5 SW 20 33 11 18 1018.2 1018.2 0.0
23/08:00am 15.7 13.8 14.1 90 0.9 SW 17 24 9 13 1017.7 1017.7 0.0
23/07:30am 16.1 13.5 13.8 86 1.3 SW 20 32 11 17 1017.1 1017.1 0.0
23/07:00am 16.1 14.2 14.1 88 1.1 SW 17 30 9 16 1016.7 1016.7 0.0
23/06:30am 16.3 14.0 14.0 86 1.3 WSW 19 28 10 15 1016.3 1016.3 0.0
23/06:00am 16.2 13.8 13.9 86 1.3 WSW 19 32 10 17 1015.5 1015.5 0.0
23/05:30am 16.2 13.7 14.0 87 1.2 WSW 20 35 11 19 1014.9 1014.9 0.0
23/05:00am 16.2 13.4 14.2 88 1.1 WSW 22 35 12 19 1014.5 1014.5 0.0
23/04:30am 16.6 14.5 14.6 88 1.1 W 19 28 10 15 1014.8 1014.8 0.0
23/04:00am 16.3 13.9 14.5 89 1.0 W 20 41 11 22 1014.6 1014.6 0.0
23/03:30am 16.7 14.1 14.9 89 1.0 WNW 22 35 12 19 1014.4 1014.4 0.0
23/03:00am 16.3 13.4 15.0 92 0.7 WNW 24 41 13 22 1014.2 1014.2 0.0
23/02:30am 16.7 13.9 15.4 92 0.8 WNW 24 35 13 19 1013.9 1013.9 0.0
23/02:00am 16.6 13.9 15.5 93 0.6 WNW 24 39 13 21 1013.7 1013.7 0.0
23/01:30am 17.1 13.4 15.1 88 1.2 WNW 28 41 15 22 1013.7 1013.7 0.0
23/01:00am 17.3 14.0 15.1 87 1.3 NW 26 39 14 21 1013.6 1013.6 0.0
23/12:30am 17.3 13.6 14.9 86 1.4 WNW 28 39 15 21 1013.4 1013.4 0.0
23/12:00am 17.4 14.2 15.4 88 1.2 WNW 26 39 14 21 1013.1 1013.1 0.0
 
Date/Time
CDT
Temp
°C
App
Temp
°C
Dew
Point
°C
Rel
Hum
%
Delta-T
°C
Wind Press
QNH
hPa
Press
MSL
hPa
Rain since
9am
mm
Dir  Spd
km/h
Gust
km/h
Spd
kts
Gust
kts
22/11:30pm 17.3 13.6 15.1 87 1.3 WNW 28 43 15 23 1012.9 1012.9 0.0
22/11:00pm 17.5 12.9 14.6 83 1.7 WNW 32 46 17 25 1012.8 1012.8 0.0
22/10:30pm 17.8 13.2 14.5 81 1.9 WNW 32 50 17 27 1012.5 1012.5 0.0
22/10:29pm 17.8 13.2 14.5 81 1.9 WNW 32 50 17 27 1012.5 1012.5 0.0
22/10:00pm 18.0 13.8 14.7 81 1.9 NW 30 41 16 22 1012.1 1012.1 0.0
22/09:30pm 18.1 13.4 14.2 78 2.2 WNW 32 46 17 25 1011.8 1011.8 0.0
22/09:00pm 18.0 14.6 14.7 81 1.9 NW 26 39 14 21 1011.4 1011.4 0.0
22/08:30pm 18.5 14.6 14.4 77 2.4 NW 28 46 15 25 1010.9 1010.9 0.0
22/08:12pm 18.8 14.8 14.1 74 2.7 NW 28 50 15 27 1010.7 1010.7 0.0
22/08:00pm 18.6 15.2 14.7 78 2.3 NNW 26 39 14 21 1010.5 1010.5 0.0
22/07:30pm 19.1 16.2 15.0 77 2.4 NNW 24 35 13 19 1010.0 1010.0 0.0
22/07:00pm 19.9 15.2 14.3 70 3.2 NNW 32 44 17 24 1009.6 1009.6 0.0
22/06:30pm 20.4 15.8 14.5 69 3.4 NNW 32 41 17 22 1009.3 1009.3 0.0
22/06:00pm 20.5 16.1 15.1 71 3.2 NNW 32 44 17 24 1009.2 1009.2 0.0
22/05:30pm 21.1 17.5 15.2 69 3.5 NNW 28 37 15 20 1009.4 1009.4 0.0
22/05:00pm 21.8 18.9 15.2 66 3.9 NW 24 35 13 19 1009.2 1009.2 0.0
22/04:30pm 22.7 20.4 16.7 69 3.7 NW 24 35 13 19 1009.0 1009.0 0.0
22/04:00pm 23.0 20.9 16.3 66 4.1 NW 22 35 12 19 1008.8 1008.8 0.0
22/03:30pm 22.8 20.7 16.1 66 4.1 NW 22 33 12 18 1008.5 1008.5 0.0
22/03:00pm 23.4 21.5 15.7 62 4.6 NW 20 30 11 16 1008.2 1008.2 0.0
22/02:30pm 21.6 19.1 15.2 67 3.8 NW 22 30 12 16 1008.1 1008.1 0.0
22/02:00pm 21.9 21.1 16.0 69 3.6 NW 15 24 8 13 1008.1 1008.1 0.0
22/01:30pm 22.2 20.5 14.8 63 4.4 WNW 17 26 9 14 1007.7 1007.7 0.0
22/01:00pm 24.1 22.3 15.6 59 5.1 NW 19 26 10 14 1007.5 1007.5 0.0
22/12:44pm 23.9 19.4 14.9 57 5.4 NW 32 50 17 27 1007.8 1007.8 0.0
22/12:30pm 25.9 19.7 12.7 44 7.7 NNW 37 54 20 29 1007.8 1007.8 0.0
22/12:09pm 26.8 18.7 10.1 35 9.3 NNW 43 63 23 34 1007.6 1007.6 0.0
22/12:00pm 27.4 18.1 9.3 32 10.0 NNW 48 63 26 34 1007.5 1007.5 0.0
22/11:33am 30.4 20.4 6.3 22 12.8 N 48 67 26 36 1006.9 1006.9 0.0
22/11:30am 30.7 20.1 5.2 20 13.4 N 50 67 27 36 1006.9 1006.9 0.0
22/11:01am 30.2 19.9 4.8 20 13.2 N 48 69 26 37 1006.6 1006.6 0.0
22/11:00am 30.2 19.5 4.8 20 13.2 N 50 69 27 37 1006.7 1006.7 0.0
22/10:30am 29.6 20.2 4.3 20 13.0 N 43 69 23 37 1007.2 1007.2 0.0
22/10:18am 28.8 20.0 3.6 20 12.7 N 39 59 21 32 1007.1 1007.1 0.0
22/10:00am 27.4 18.5 3.2 21 12.0 N 39 52 21 28 1007.4 1007.4 0.0
22/09:35am 26.4 18.4 3.6 23 11.3 N 35 54 19 29 1007.6 1007.6 0.0
22/09:30am 25.0 16.0 2.4 23 10.9 N 39 54 21 29 1007.6 1007.6 0.0
22/09:00am 24.0 16.6 3.9 27 9.9 NNE 32 43 17 23 1007.7 1007.7 0.0
22/08:30am 22.8 15.8 3.9 29 9.2 NNE 30 46 16 25 1007.8 1007.8 0.0
22/08:00am 20.8 14.8 3.5 32 8.2 NNE 24 32 13 17 1008.1 1008.1 0.0
22/07:30am 18.2 13.7 4.0 39 6.7 NE 17 26 9 14 1008.3 1008.3 0.0
22/07:00am 17.6 12.1 3.9 40 6.4 NNE 22 32 12 17 1008.4 1008.4 0.0
22/06:30am 16.8 11.9 4.2 43 5.9 NE 19 24 10 13 1008.4 1008.4 0.0
22/06:00am 17.3 12.4 4.3 42 6.1 NE 19 30 10 16 1008.4 1008.4 0.0
22/05:30am 17.3 12.5 4.6 43 6.0 NNE 19 28 10 15 1008.8 1008.8 0.0
22/05:00am 16.9 12.5 4.6 44 5.8 NE 17 24 9 13 1008.9 1008.9 0.0
22/04:30am 16.1 12.1 5.1 48 5.2 NE 15 22 8 12 1009.0 1009.0 0.0
22/04:00am 16.4 12.1 5.4 48 5.3 NE 17 24 9 13 1009.2 1009.2 0.0
22/03:30am 15.9 12.9 5.8 51 4.9 NE 11 17 6 9 1009.6 1009.6 0.0
22/03:00am 15.9 12.2 6.3 53 4.7 NE 15 19 8 10 1009.9 1009.9 0.0
22/02:30am 15.0 11.5 7.3 60 3.8 NE 15 19 8 10 1010.2 1010.2 0.0
22/02:00am 14.1 11.1 7.6 65 3.2 NE 13 17 7 9 1010.7 1010.7 0.0
22/01:30am 13.9 11.4 8.3 69 2.8 NE 11 15 6 8 1011.2 1011.2 0.0
22/01:00am 13.6 11.3 9.1 74 2.3 NE 11 15 6 8 1011.6 1011.6 0.0
22/12:30am 14.2 11.8 10.2 77 2.1 ENE 13 17 7 9 1012.1 1012.1 0.0
22/12:00am 14.6 12.8 11.0 79 1.9 ENE 11 15 6 8 1012.4 1012.4 0.0
 
Date/Time
CDT
Temp
°C
App
Temp
°C
Dew
Point
°C
Rel
Hum
%
Delta-T
°C
Wind Press
QNH
hPa
Press
MSL
hPa
Rain since
9am
mm
Dir  Spd
km/h
Gust
km/h
Spd
kts
Gust
kts
21/11:30pm 13.2 11.8 9.6 79 1.8 E 7 9 4 5 1013.0 1013.0 0.0
21/11:00pm 13.8 12.6 10.2 79 1.9 ESE 7 9 4 5 1013.5 1013.5 0.0
21/10:30pm 14.4 13.4 10.4 77 2.1 ESE 6 9 3 5 1013.9 1013.9 0.0
21/10:00pm 14.1 12.8 10.1 77 2.1 ESE 7 11 4 6 1014.0 1014.0 0.0
21/09:30pm 14.5 13.5 10.9 79 1.9 ESE 7 9 4 5 1014.2 1014.2 0.0
21/09:00pm 15.7 14.7 12.3 80 1.9 SE 9 11 5 6 1014.3 1014.3 0.0
21/08:30pm 15.2 14.3 10.6 74 2.4 S 6 7 3 4 1014.3 1014.3 0.0
21/08:00pm 17.0 15.7 11.1 68 3.2 SSE 9 13 5 7 1014.3 1014.3 0.0
21/07:30pm 18.6 16.9 9.9 57 4.6 SSE 9 15 5 8 1014.3 1014.3 0.0
21/07:00pm 20.7 18.5 9.3 48 6.1 S 11 15 6 8 1014.2 1014.2 0.0
21/06:30pm 21.8 20.0 9.3 45 6.7 S 9 15 5 8 1014.6 1014.6 0.0
21/06:00pm 22.3 20.9 9.5 44 6.9 S 7 13 4 7 1014.6 1014.6 0.0
21/05:30pm 22.2 20.2 10.0 46 6.6 SSW 11 15 6 8 1014.8 1014.8 0.0
21/05:00pm 22.1 20.0 9.6 45 6.7 SSW 11 17 6 9 1015.2 1015.2 0.0
21/04:30pm 22.4 20.3 9.9 45 6.8 SSW 11 17 6 9 1015.6 1015.6 0.0
21/04:00pm 22.4 20.3 9.9 45 6.8 SSW 11 19 6 10 1016.1 1016.1 0.0
21/03:30pm 23.4 21.8 10.1 43 7.3 WSW 9 15 5 8 1016.5 1016.5 0.0
21/03:00pm 22.6 20.8 10.7 47 6.5 WSW 11 20 6 11 1016.8 1016.8 0.0
21/02:30pm 22.4 19.9 10.9 48 6.3 W 15 19 8 10 1017.3 1017.3 0.0
21/02:00pm 22.5 20.6 11.9 51 6.0 WSW 13 22 7 12 1017.5 1017.5 0.0
21/01:30pm 22.8 20.7 9.9 44 7.0 NW 11 17 6 9 1017.7 1017.7 0.0
21/01:00pm 22.1 20.5 10.3 47 6.4 WNW 9 17 5 9 1018.3 1018.3 0.0
21/12:30pm 23.2 21.1 9.6 42 7.4 NNE 11 20 6 11 1018.9 1018.9 0.0
21/12:00pm 22.0 19.2 8.5 42 7.1 NNE 13 24 7 13 1019.3 1019.3 0.0
21/11:30am 20.8 17.3 8.8 46 6.3 N 17 26 9 14 1019.7 1019.7 0.0
21/11:00am 20.2 17.2 9.2 49 5.8 NNE 15 24 8 13 1020.2 1020.2 0.0
21/10:30am 19.6 16.2 9.2 51 5.5 NE 17 22 9 12 1020.3 1020.3 0.0
21/10:00am 18.0 15.0 9.4 57 4.5 NE 15 20 8 11 1020.4 1020.4 0.0
21/09:30am 16.2 13.0 9.8 66 3.3 NE 17 22 9 12 1020.5 1020.5 0.0
21/09:00am 13.8 10.9 9.8 77 2.1 NE 15 20 8 11 1020.6 1020.6 0.0
21/08:30am 11.8 9.4 10.2 90 0.8 NE 13 19 7 10 1020.5 1020.5 0.0
21/08:00am 10.3 9.0 9.8 97 0.3 ENE 7 11 4 6 1020.2 1020.2 0.0
21/07:30am 8.0 6.7 7.7 98 0.1 E 4 9 2 5 1020.2 1020.2 0.0
21/07:00am 6.3 4.6 5.9 97 0.2 E 4 6 2 3 1020.0 1020.0 0.0
21/06:30am 7.0 5.5 6.7 98 0.1 E 4 6 2 3 1019.9 1019.9 0.0
21/06:00am 5.8 3.6 5.4 97 0.2 E 6 7 3 4 1019.3 1019.3 0.0
21/05:30am 5.9 3.6 5.5 97 0.2 E 7 7 4 4 1019.2 1019.2 0.0
21/05:00am 5.9 4.1 5.3 96 0.3 SSE 4 6 2 3 1019.1 1019.1 0.0
21/04:30am 5.2 4.0 4.5 95 0.3 CALM 0 0 0 0 1019.4 1019.4 0.0
21/04:00am 6.7 5.9 6.3 97 0.2 CALM 0 0 0 0 1019.4 1019.4 0.0
21/03:30am 5.3 4.1 4.6 95 0.3 CALM 0 0 0 0 1019.0 1019.0 0.0
21/03:00am 5.3 4.1 4.6 95 0.3 CALM 0 0 0 0 1018.9 1018.9 0.0
21/02:30am 5.6 4.5 4.9 95 0.3 CALM 0 0 0 0 1019.2 1019.2 0.0
21/02:00am 6.1 5.0 5.1 93 0.4 CALM 0 0 0 0 1019.3 1019.3 0.0
21/01:30am 6.4 5.4 5.4 93 0.4 CALM 0 0 0 0 1019.3 1019.3 0.0
21/01:00am 6.7 5.7 5.7 93 0.4 CALM 0 0 0 0 1019.5 1019.5 0.0
21/12:30am 6.6 5.5 5.1 90 0.7 CALM 0 0 0 0 1019.7 1019.7 0.0
21/12:00am 8.2 7.4 6.5 89 0.8 CALM 0 0 0 0 1020.2 1020.2 0.0
 
Date/Time
CDT
Temp
°C
App
Temp
°C
Dew
Point
°C
Rel
Hum
%
Delta-T
°C
Wind Press
QNH
hPa
Press
MSL
hPa
Rain since
9am
mm
Dir  Spd
km/h
Gust
km/h
Spd
kts
Gust
kts
20/11:30pm 9.1 8.5 7.4 89 0.8 CALM 0 0 0 0 1020.1 1020.1 0.0
20/11:00pm 9.2 8.2 7.2 87 0.9 SSE 2 2 1 1 1020.1 1020.1 0.0
20/10:30pm 10.8 9.1 7.5 80 1.6 SSE 6 13 3 7 1020.1 1020.1 0.0
20/10:00pm 11.1 8.9 7.8 80 1.6 S 9 11 5 6 1020.0 1020.0 0.0
20/09:30pm 11.6 9.7 7.5 76 2.0 S 7 7 4 4 1019.8 1019.8 0.0
20/09:00pm 11.8 9.5 7.5 75 2.1 SSE 9 11 5 6 1019.6 1019.6 0.0
20/08:30pm 12.6 10.4 7.7 72 2.4 S 9 11 5 6 1019.4 1019.4 0.0
20/08:00pm 13.6 11.4 7.8 68 2.9 S 9 13 5 7 1019.2 1019.2 0.0
20/07:30pm 15.2 11.8 7.7 61 3.7 S 15 20 8 11 1018.8 1018.8 0.0
20/07:00pm 16.0 11.7 7.0 55 4.4 S 19 22 10 12 1018.5 1018.5 0.0
20/06:30pm 16.8 13.3 7.2 53 4.8 S 15 22 8 12 1018.2 1018.2 0.0
20/06:00pm 17.1 13.3 7.5 53 4.8 SSW 17 24 9 13 1018.0 1018.0 0.0
20/05:30pm 17.1 13.0 7.7 54 4.7 SSW 19 28 10 15 1017.7 1017.7 0.0
20/05:00pm 17.7 14.0 8.0 53 4.9 SSW 17 26 9 14 1017.6 1017.6 0.0
20/04:30pm 18.1 14.0 7.8 51 5.2 S 19 32 10 17 1017.6 1017.6 0.0
20/04:00pm 18.4 14.4 8.1 51 5.3 S 19 41 10 22 1017.5 1017.5 0.0
20/03:30pm 18.1 13.9 8.4 53 5.0 SSW 20 33 11 18 1017.7 1017.7 0.0
20/03:00pm 18.7 14.7 8.9 53 5.1 S 20 28 11 15 1017.7 1017.7 0.0
20/02:30pm 18.4 14.3 8.7 53 5.0 SSW 20 33 11 18 1018.0 1018.0 0.0
20/02:00pm 18.3 14.2 8.8 54 4.9 SSW 20 32 11 17 1017.9 1017.9 0.0
20/01:30pm 18.3 14.0 7.7 50 5.4 SW 20 32 11 17 1017.9 1017.9 0.0
20/01:00pm 18.4 14.1 7.8 50 5.4 SSW 20 32 11 17 1018.0 1018.0 0.0
20/12:30pm 18.0 13.3 7.7 51 5.2 SSW 22 32 12 17 1018.0 1018.0 0.0
20/12:00pm 17.4 14.0 7.5 52 5.0 SW 15 22 8 12 1018.3 1018.3 0.0
20/11:30am 16.8 13.0 7.7 55 4.6 SSW 17 24 9 13 1018.4 1018.4 0.0
20/11:00am 17.2 14.7 8.4 56 4.5 SW 11 20 6 11 1018.3 1018.3 0.0

Other Formats:

Comma delimited format used in spreadsheet applications
http://www.bom.gov.au/fwo/IDS60801/IDS60801.95816.axf

JavaScript Object Notation format (JSON) in row-major order
http://www.bom.gov.au/fwo/IDS60801/IDS60801.95816.json